sensor_id;sensor_type;location;lat;lon;timestamp;P1;durP1;ratioP1;P2;durP2;ratioP2
12812;SDS011;6471;50.932;6.934;2023-07-02T00:00:48;3.47;;;1.77;;
12812;SDS011;6471;50.932;6.934;2023-07-02T00:06:37;3.93;;;2.30;;
12812;SDS011;6471;50.932;6.934;2023-07-02T00:09:17;2.50;;;1.90;;
12812;SDS011;6471;50.932;6.934;2023-07-02T00:11:54;2.87;;;2.03;;
12812;SDS011;6471;50.932;6.934;2023-07-02T00:14:29;3.00;;;2.00;;
12812;SDS011;6471;50.932;6.934;2023-07-02T00:17:00;2.33;;;1.93;;
12812;SDS011;6471;50.932;6.934;2023-07-02T00:19:34;2.77;;;2.03;;
12812;SDS011;6471;50.932;6.934;2023-07-02T00:22:09;3.63;;;2.10;;
12812;SDS011;6471;50.932;6.934;2023-07-02T00:28:19;3.50;;;1.93;;
12812;SDS011;6471;50.932;6.934;2023-07-02T00:30:50;2.43;;;1.97;;
12812;SDS011;6471;50.932;6.934;2023-07-02T00:33:20;2.47;;;2.10;;
12812;SDS011;6471;50.932;6.934;2023-07-02T00:35:56;2.60;;;1.97;;
12812;SDS011;6471;50.932;6.934;2023-07-02T00:38:25;2.90;;;1.90;;
12812;SDS011;6471;50.932;6.934;2023-07-02T00:40:54;2.60;;;1.80;;
12812;SDS011;6471;50.932;6.934;2023-07-02T00:49:11;5.30;;;2.57;;
12812;SDS011;6471;50.932;6.934;2023-07-02T00:51:49;3.47;;;2.30;;
12812;SDS011;6471;50.932;6.934;2023-07-02T00:57:58;2.70;;;2.20;;
12812;SDS011;6471;50.932;6.934;2023-07-02T01:00:41;3.60;;;2.47;;
12812;SDS011;6471;50.932;6.934;2023-07-02T01:03:32;3.30;;;2.30;;
12812;SDS011;6471;50.932;6.934;2023-07-02T01:15:59;5.60;;;2.73;;
12812;SDS011;6471;50.932;6.934;2023-07-02T01:21:52;5.10;;;3.30;;
12812;SDS011;6471;50.932;6.934;2023-07-02T01:24:36;6.50;;;3.50;;
12812;SDS011;6471;50.932;6.934;2023-07-02T01:27:07;8.43;;;4.03;;
12812;SDS011;6471;50.932;6.934;2023-07-02T01:29:44;7.57;;;4.13;;
12812;SDS011;6471;50.932;6.934;2023-07-02T01:35:31;7.13;;;4.00;;
12812;SDS011;6471;50.932;6.934;2023-07-02T01:41:12;7.70;;;4.07;;
12812;SDS011;6471;50.932;6.934;2023-07-02T01:49:45;9.27;;;5.20;;
12812;SDS011;6471;50.932;6.934;2023-07-02T01:52:39;8.13;;;5.00;;
12812;SDS011;6471;50.932;6.934;2023-07-02T01:55:24;7.83;;;5.03;;
12812;SDS011;6471;50.932;6.934;2023-07-02T01:58:08;8.07;;;5.37;;
12812;SDS011;6471;50.932;6.934;2023-07-02T02:01:01;7.57;;;5.00;;
12812;SDS011;6471;50.932;6.934;2023-07-02T02:03:40;9.90;;;5.23;;
12812;SDS011;6471;50.932;6.934;2023-07-02T02:06:31;8.37;;;5.47;;
12812;SDS011;6471;50.932;6.934;2023-07-02T02:09:01;9.13;;;5.40;;
12812;SDS011;6471;50.932;6.934;2023-07-02T02:18:00;12.07;;;6.03;;
12812;SDS011;6471;50.932;6.934;2023-07-02T02:20:57;9.40;;;5.83;;
12812;SDS011;6471;50.932;6.934;2023-07-02T02:23:32;8.37;;;5.63;;
12812;SDS011;6471;50.932;6.934;2023-07-02T02:26:11;9.50;;;5.60;;
12812;SDS011;6471;50.932;6.934;2023-07-02T02:32:10;8.80;;;5.93;;
12812;SDS011;6471;50.932;6.934;2023-07-02T02:35:05;10.70;;;6.43;;
12812;SDS011;6471;50.932;6.934;2023-07-02T02:37:36;9.47;;;6.47;;
12812;SDS011;6471;50.932;6.934;2023-07-02T02:40:03;10.47;;;6.40;;
12812;SDS011;6471;50.932;6.934;2023-07-02T02:42:30;13.67;;;7.30;;
12812;SDS011;6471;50.932;6.934;2023-07-02T02:45:39;13.80;;;7.20;;
12812;SDS011;6471;50.932;6.934;2023-07-02T02:51:44;10.40;;;6.83;;
12812;SDS011;6471;50.932;6.934;2023-07-02T02:54:10;9.43;;;6.43;;
12812;SDS011;6471;50.932;6.934;2023-07-02T02:56:38;10.77;;;6.47;;
12812;SDS011;6471;50.932;6.934;2023-07-02T02:59:04;11.07;;;6.90;;
12812;SDS011;6471;50.932;6.934;2023-07-02T03:01:30;11.77;;;6.90;;
12812;SDS011;6471;50.932;6.934;2023-07-02T03:04:00;15.70;;;7.97;;
12812;SDS011;6471;50.932;6.934;2023-07-02T03:06:29;10.37;;;6.50;;
12812;SDS011;6471;50.932;6.934;2023-07-02T03:08:55;10.77;;;7.03;;
12812;SDS011;6471;50.932;6.934;2023-07-02T03:11:24;14.43;;;8.40;;
12812;SDS011;6471;50.932;6.934;2023-07-02T03:13:56;13.40;;;7.83;;
12812;SDS011;6471;50.932;6.934;2023-07-02T03:16:25;14.60;;;8.03;;
12812;SDS011;6471;50.932;6.934;2023-07-02T03:21:30;10.97;;;7.10;;
12812;SDS011;6471;50.932;6.934;2023-07-02T03:23:57;14.00;;;8.13;;
12812;SDS011;6471;50.932;6.934;2023-07-02T03:26:25;17.90;;;8.67;;
12812;SDS011;6471;50.932;6.934;2023-07-02T03:28:52;13.07;;;7.90;;
12812;SDS011;6471;50.932;6.934;2023-07-02T03:31:18;12.07;;;8.47;;
12812;SDS011;6471;50.932;6.934;2023-07-02T03:36:32;15.53;;;8.43;;
12812;SDS011;6471;50.932;6.934;2023-07-02T03:38:58;17.20;;;8.50;;
12812;SDS011;6471;50.932;6.934;2023-07-02T03:41:24;15.10;;;9.13;;
12812;SDS011;6471;50.932;6.934;2023-07-02T03:43:50;11.93;;;7.67;;
12812;SDS011;6471;50.932;6.934;2023-07-02T03:46:19;10.93;;;7.20;;
12812;SDS011;6471;50.932;6.934;2023-07-02T03:48:48;13.57;;;8.10;;
12812;SDS011;6471;50.932;6.934;2023-07-02T03:51:14;13.40;;;8.43;;
12812;SDS011;6471;50.932;6.934;2023-07-02T03:53:40;15.23;;;8.97;;
12812;SDS011;6471;50.932;6.934;2023-07-02T03:56:06;14.40;;;8.50;;
12812;SDS011;6471;50.932;6.934;2023-07-02T03:58:32;13.53;;;8.37;;
12812;SDS011;6471;50.932;6.934;2023-07-02T04:00:58;13.63;;;8.27;;
12812;SDS011;6471;50.932;6.934;2023-07-02T04:03:25;15.37;;;7.97;;
12812;SDS011;6471;50.932;6.934;2023-07-02T04:05:51;11.57;;;7.50;;
12812;SDS011;6471;50.932;6.934;2023-07-02T04:08:17;11.87;;;8.00;;
12812;SDS011;6471;50.932;6.934;2023-07-02T04:10:46;13.93;;;8.50;;
12812;SDS011;6471;50.932;6.934;2023-07-02T04:13:14;13.00;;;7.70;;
12812;SDS011;6471;50.932;6.934;2023-07-02T04:15:43;12.80;;;8.23;;
12812;SDS011;6471;50.932;6.934;2023-07-02T04:18:09;16.67;;;10.03;;
12812;SDS011;6471;50.932;6.934;2023-07-02T04:20:35;19.10;;;10.23;;
12812;SDS011;6471;50.932;6.934;2023-07-02T04:23:03;16.97;;;10.23;;
12812;SDS011;6471;50.932;6.934;2023-07-02T04:25:29;15.17;;;9.47;;
12812;SDS011;6471;50.932;6.934;2023-07-02T04:27:56;13.93;;;9.30;;
12812;SDS011;6471;50.932;6.934;2023-07-02T04:30:23;17.07;;;9.97;;
12812;SDS011;6471;50.932;6.934;2023-07-02T04:32:50;15.10;;;9.67;;
12812;SDS011;6471;50.932;6.934;2023-07-02T04:35:16;16.87;;;9.57;;
12812;SDS011;6471;50.932;6.934;2023-07-02T04:37:42;17.20;;;10.10;;
12812;SDS011;6471;50.932;6.934;2023-07-02T04:40:09;16.63;;;10.23;;
12812;SDS011;6471;50.932;6.934;2023-07-02T04:42:38;17.90;;;11.20;;
12812;SDS011;6471;50.932;6.934;2023-07-02T04:45:05;16.30;;;10.50;;
12812;SDS011;6471;50.932;6.934;2023-07-02T04:47:31;21.13;;;11.27;;
12812;SDS011;6471;50.932;6.934;2023-07-02T04:49:58;21.60;;;10.87;;
12812;SDS011;6471;50.932;6.934;2023-07-02T04:52:24;17.67;;;9.90;;
12812;SDS011;6471;50.932;6.934;2023-07-02T04:54:50;15.83;;;9.87;;
12812;SDS011;6471;50.932;6.934;2023-07-02T04:57:16;16.23;;;10.43;;
12812;SDS011;6471;50.932;6.934;2023-07-02T04:59:42;16.17;;;9.63;;
12812;SDS011;6471;50.932;6.934;2023-07-02T05:02:09;20.07;;;10.60;;
12812;SDS011;6471;50.932;6.934;2023-07-02T05:04:35;17.90;;;10.47;;
12812;SDS011;6471;50.932;6.934;2023-07-02T05:07:04;20.33;;;11.73;;
12812;SDS011;6471;50.932;6.934;2023-07-02T05:09:30;18.43;;;10.33;;
12812;SDS011;6471;50.932;6.934;2023-07-02T05:11:59;16.20;;;10.57;;
12812;SDS011;6471;50.932;6.934;2023-07-02T05:14:25;21.00;;;12.53;;
12812;SDS011;6471;50.932;6.934;2023-07-02T05:16:51;22.70;;;12.60;;
12812;SDS011;6471;50.932;6.934;2023-07-02T05:19:17;20.57;;;11.87;;
12812;SDS011;6471;50.932;6.934;2023-07-02T05:21:43;20.90;;;12.43;;
12812;SDS011;6471;50.932;6.934;2023-07-02T05:24:09;21.07;;;12.67;;
12812;SDS011;6471;50.932;6.934;2023-07-02T05:26:35;25.23;;;12.87;;
12812;SDS011;6471;50.932;6.934;2023-07-02T05:29:01;23.00;;;13.17;;
12812;SDS011;6471;50.932;6.934;2023-07-02T05:31:27;21.70;;;11.80;;
12812;SDS011;6471;50.932;6.934;2023-07-02T05:33:54;23.37;;;13.07;;
12812;SDS011;6471;50.932;6.934;2023-07-02T05:36:20;25.63;;;12.67;;
12812;SDS011;6471;50.932;6.934;2023-07-02T05:38:46;24.87;;;13.57;;
12812;SDS011;6471;50.932;6.934;2023-07-02T05:41:22;23.57;;;12.03;;
12812;SDS011;6471;50.932;6.934;2023-07-02T05:43:48;20.77;;;11.87;;
12812;SDS011;6471;50.932;6.934;2023-07-02T05:46:14;21.67;;;12.37;;
12812;SDS011;6471;50.932;6.934;2023-07-02T05:48:40;23.43;;;12.83;;
12812;SDS011;6471;50.932;6.934;2023-07-02T05:51:07;22.20;;;11.87;;
12812;SDS011;6471;50.932;6.934;2023-07-02T05:53:33;19.33;;;11.93;;
12812;SDS011;6471;50.932;6.934;2023-07-02T05:55:59;24.13;;;13.73;;
12812;SDS011;6471;50.932;6.934;2023-07-02T05:58:26;21.57;;;13.37;;
12812;SDS011;6471;50.932;6.934;2023-07-02T06:00:52;27.37;;;14.57;;
12812;SDS011;6471;50.932;6.934;2023-07-02T06:03:18;19.13;;;12.50;;
12812;SDS011;6471;50.932;6.934;2023-07-02T06:05:48;22.53;;;12.77;;
12812;SDS011;6471;50.932;6.934;2023-07-02T06:08:17;25.33;;;13.00;;
12812;SDS011;6471;50.932;6.934;2023-07-02T06:10:45;22.87;;;13.07;;
12812;SDS011;6471;50.932;6.934;2023-07-02T06:13:11;26.13;;;14.23;;
12812;SDS011;6471;50.932;6.934;2023-07-02T06:15:38;24.37;;;13.43;;
12812;SDS011;6471;50.932;6.934;2023-07-02T06:18:04;22.00;;;12.83;;
12812;SDS011;6471;50.932;6.934;2023-07-02T06:20:30;20.10;;;12.20;;
12812;SDS011;6471;50.932;6.934;2023-07-02T06:22:56;22.27;;;12.97;;
12812;SDS011;6471;50.932;6.934;2023-07-02T06:25:22;22.23;;;12.97;;
12812;SDS011;6471;50.932;6.934;2023-07-02T06:27:48;21.23;;;13.03;;
12812;SDS011;6471;50.932;6.934;2023-07-02T06:30:14;20.83;;;12.10;;
12812;SDS011;6471;50.932;6.934;2023-07-02T06:32:40;23.23;;;12.17;;
12812;SDS011;6471;50.932;6.934;2023-07-02T06:35:06;25.23;;;13.90;;
12812;SDS011;6471;50.932;6.934;2023-07-02T06:37:33;21.70;;;13.33;;
12812;SDS011;6471;50.932;6.934;2023-07-02T06:39:59;20.90;;;12.60;;
12812;SDS011;6471;50.932;6.934;2023-07-02T06:42:25;24.17;;;13.30;;
12812;SDS011;6471;50.932;6.934;2023-07-02T06:44:51;25.03;;;13.13;;
12812;SDS011;6471;50.932;6.934;2023-07-02T06:47:17;21.77;;;11.80;;
12812;SDS011;6471;50.932;6.934;2023-07-02T06:49:43;19.47;;;12.43;;
12812;SDS011;6471;50.932;6.934;2023-07-02T06:52:10;22.10;;;13.03;;
12812;SDS011;6471;50.932;6.934;2023-07-02T06:54:36;21.80;;;12.53;;
12812;SDS011;6471;50.932;6.934;2023-07-02T06:57:02;25.20;;;13.33;;
12812;SDS011;6471;50.932;6.934;2023-07-02T06:59:28;27.57;;;13.77;;
12812;SDS011;6471;50.932;6.934;2023-07-02T07:01:54;24.23;;;13.00;;
12812;SDS011;6471;50.932;6.934;2023-07-02T07:04:20;24.93;;;13.33;;
12812;SDS011;6471;50.932;6.934;2023-07-02T07:06:46;29.43;;;14.97;;
12812;SDS011;6471;50.932;6.934;2023-07-02T07:09:12;24.73;;;13.07;;
12812;SDS011;6471;50.932;6.934;2023-07-02T07:11:41;25.07;;;12.83;;
12812;SDS011;6471;50.932;6.934;2023-07-02T07:14:07;23.93;;;13.50;;
12812;SDS011;6471;50.932;6.934;2023-07-02T07:16:33;24.00;;;13.07;;
12812;SDS011;6471;50.932;6.934;2023-07-02T07:19:01;29.87;;;14.07;;
12812;SDS011;6471;50.932;6.934;2023-07-02T07:21:36;24.60;;;13.23;;
12812;SDS011;6471;50.932;6.934;2023-07-02T07:24:11;25.87;;;13.37;;
12812;SDS011;6471;50.932;6.934;2023-07-02T07:26:37;23.80;;;14.13;;
12812;SDS011;6471;50.932;6.934;2023-07-02T07:29:03;23.00;;;12.40;;
12812;SDS011;6471;50.932;6.934;2023-07-02T07:31:29;26.50;;;13.37;;
12812;SDS011;6471;50.932;6.934;2023-07-02T07:33:58;21.03;;;10.57;;
12812;SDS011;6471;50.932;6.934;2023-07-02T07:36:24;21.10;;;11.90;;
12812;SDS011;6471;50.932;6.934;2023-07-02T07:38:50;20.67;;;11.30;;
12812;SDS011;6471;50.932;6.934;2023-07-02T07:41:16;23.07;;;10.93;;
12812;SDS011;6471;50.932;6.934;2023-07-02T07:43:42;19.73;;;11.43;;
12812;SDS011;6471;50.932;6.934;2023-07-02T07:46:08;15.13;;;9.83;;
12812;SDS011;6471;50.932;6.934;2023-07-02T07:48:40;22.50;;;12.47;;
12812;SDS011;6471;50.932;6.934;2023-07-02T07:51:06;22.80;;;11.30;;
12812;SDS011;6471;50.932;6.934;2023-07-02T07:53:32;19.10;;;11.03;;
12812;SDS011;6471;50.932;6.934;2023-07-02T07:55:58;18.03;;;10.87;;
12812;SDS011;6471;50.932;6.934;2023-07-02T08:04:24;17.80;;;11.03;;
12812;SDS011;6471;50.932;6.934;2023-07-02T09:21:20;18.93;;;10.50;;
12812;SDS011;6471;50.932;6.934;2023-07-02T09:23:52;18.27;;;11.03;;
12812;SDS011;6471;50.932;6.934;2023-07-02T09:26:21;18.73;;;10.73;;
12812;SDS011;6471;50.932;6.934;2023-07-02T09:31:43;22.73;;;11.83;;
12812;SDS011;6471;50.932;6.934;2023-07-02T09:40:32;18.67;;;10.37;;
12812;SDS011;6471;50.932;6.934;2023-07-02T09:46:25;18.23;;;9.87;;
12812;SDS011;6471;50.932;6.934;2023-07-02T10:17:11;15.67;;;10.17;;
12812;SDS011;6471;50.932;6.934;2023-07-02T10:23:52;16.43;;;10.10;;
12812;SDS011;6471;50.932;6.934;2023-07-02T10:30:16;19.60;;;10.93;;
12812;SDS011;6471;50.932;6.934;2023-07-02T10:33:19;19.47;;;10.67;;
12812;SDS011;6471;50.932;6.934;2023-07-02T11:13:14;18.47;;;10.57;;
12812;SDS011;6471;50.932;6.934;2023-07-02T11:19:14;18.13;;;10.30;;
12812;SDS011;6471;50.932;6.934;2023-07-02T11:21:50;18.07;;;9.77;;
12812;SDS011;6471;50.932;6.934;2023-07-02T11:24:35;20.00;;;10.43;;
12812;SDS011;6471;50.932;6.934;2023-07-02T11:27:30;20.60;;;10.67;;
12812;SDS011;6471;50.932;6.934;2023-07-02T11:33:36;19.60;;;10.27;;
12812;SDS011;6471;50.932;6.934;2023-07-02T11:36:23;18.37;;;10.30;;
12812;SDS011;6471;50.932;6.934;2023-07-02T11:48:08;21.90;;;11.63;;
12812;SDS011;6471;50.932;6.934;2023-07-02T11:51:06;19.83;;;10.70;;
12812;SDS011;6471;50.932;6.934;2023-07-02T11:56:31;20.33;;;10.23;;
12812;SDS011;6471;50.932;6.934;2023-07-02T11:59:36;14.60;;;9.03;;
12812;SDS011;6471;50.932;6.934;2023-07-02T12:02:11;16.37;;;9.53;;
12812;SDS011;6471;50.932;6.934;2023-07-02T12:04:48;16.40;;;9.50;;
12812;SDS011;6471;50.932;6.934;2023-07-02T12:10:42;19.50;;;9.97;;
12812;SDS011;6471;50.932;6.934;2023-07-02T12:13:50;17.23;;;9.90;;
12812;SDS011;6471;50.932;6.934;2023-07-02T12:16:26;17.53;;;8.87;;
12812;SDS011;6471;50.932;6.934;2023-07-02T12:19:02;17.40;;;8.60;;
12812;SDS011;6471;50.932;6.934;2023-07-02T12:21:31;14.67;;;8.23;;
12812;SDS011;6471;50.932;6.934;2023-07-02T12:24:06;13.67;;;7.20;;
12812;SDS011;6471;50.932;6.934;2023-07-02T12:29:47;15.97;;;7.60;;
12812;SDS011;6471;50.932;6.934;2023-07-02T12:35:15;15.07;;;8.13;;
12812;SDS011;6471;50.932;6.934;2023-07-02T12:38:04;12.33;;;7.13;;
12812;SDS011;6471;50.932;6.934;2023-07-02T12:40:44;15.07;;;8.00;;
12812;SDS011;6471;50.932;6.934;2023-07-02T12:43:25;13.23;;;6.93;;
12812;SDS011;6471;50.932;6.934;2023-07-02T12:46:07;12.83;;;7.10;;
12812;SDS011;6471;50.932;6.934;2023-07-02T12:49:10;14.37;;;6.53;;
12812;SDS011;6471;50.932;6.934;2023-07-02T12:51:40;13.10;;;6.90;;
12812;SDS011;6471;50.932;6.934;2023-07-02T12:57:14;15.23;;;7.07;;
12812;SDS011;6471;50.932;6.934;2023-07-02T13:11:56;15.10;;;7.83;;
12812;SDS011;6471;50.932;6.934;2023-07-02T13:25:47;13.33;;;7.67;;
12812;SDS011;6471;50.932;6.934;2023-07-02T14:23:01;16.23;;;9.40;;
12812;SDS011;6471;50.932;6.934;2023-07-02T14:25:37;15.10;;;8.40;;
12812;SDS011;6471;50.932;6.934;2023-07-02T14:28:07;16.87;;;9.43;;
12812;SDS011;6471;50.932;6.934;2023-07-02T14:30:45;15.43;;;8.73;;
12812;SDS011;6471;50.932;6.934;2023-07-02T14:33:29;15.30;;;8.97;;
12812;SDS011;6471;50.932;6.934;2023-07-02T14:35:59;14.70;;;9.13;;
12812;SDS011;6471;50.932;6.934;2023-07-02T14:38:34;13.97;;;8.13;;
12812;SDS011;6471;50.932;6.934;2023-07-02T14:41:01;14.50;;;8.23;;
12812;SDS011;6471;50.932;6.934;2023-07-02T14:43:33;15.77;;;9.07;;
12812;SDS011;6471;50.932;6.934;2023-07-02T14:46:01;14.80;;;9.57;;
12812;SDS011;6471;50.932;6.934;2023-07-02T14:51:35;17.07;;;9.80;;
12812;SDS011;6471;50.932;6.934;2023-07-02T14:54:10;17.47;;;9.43;;
12812;SDS011;6471;50.932;6.934;2023-07-02T15:09:07;15.07;;;9.00;;
12812;SDS011;6471;50.932;6.934;2023-07-02T15:14:52;14.43;;;8.50;;
12812;SDS011;6471;50.932;6.934;2023-07-02T15:17:27;14.53;;;8.23;;
12812;SDS011;6471;50.932;6.934;2023-07-02T15:23:48;13.30;;;8.00;;
12812;SDS011;6471;50.932;6.934;2023-07-02T15:26:28;14.00;;;7.70;;
12812;SDS011;6471;50.932;6.934;2023-07-02T15:56:13;15.47;;;9.27;;
12812;SDS011;6471;50.932;6.934;2023-07-02T16:01:38;15.77;;;8.97;;
12812;SDS011;6471;50.932;6.934;2023-07-02T16:04:14;14.07;;;8.97;;
12812;SDS011;6471;50.932;6.934;2023-07-02T16:06:52;16.27;;;8.37;;
12812;SDS011;6471;50.932;6.934;2023-07-02T16:09:32;14.47;;;8.53;;
12812;SDS011;6471;50.932;6.934;2023-07-02T16:12:18;13.97;;;8.77;;
12812;SDS011;6471;50.932;6.934;2023-07-02T16:20:40;20.90;;;10.53;;
12812;SDS011;6471;50.932;6.934;2023-07-02T16:23:36;15.30;;;8.73;;
12812;SDS011;6471;50.932;6.934;2023-07-02T16:26:09;18.07;;;9.97;;
12812;SDS011;6471;50.932;6.934;2023-07-02T16:28:57;17.27;;;10.03;;
12812;SDS011;6471;50.932;6.934;2023-07-02T16:31:49;15.27;;;9.07;;
12812;SDS011;6471;50.932;6.934;2023-07-02T16:41:19;19.03;;;9.40;;
12812;SDS011;6471;50.932;6.934;2023-07-02T16:50:43;21.50;;;10.03;;
12812;SDS011;6471;50.932;6.934;2023-07-02T17:03:02;17.27;;;9.30;;
12812;SDS011;6471;50.932;6.934;2023-07-02T17:05:31;17.57;;;9.60;;
12812;SDS011;6471;50.932;6.934;2023-07-02T17:11:23;16.73;;;9.47;;
12812;SDS011;6471;50.932;6.934;2023-07-02T17:13:49;15.80;;;9.30;;
12812;SDS011;6471;50.932;6.934;2023-07-02T17:16:33;15.77;;;9.10;;
12812;SDS011;6471;50.932;6.934;2023-07-02T17:19:26;16.33;;;8.87;;
12812;SDS011;6471;50.932;6.934;2023-07-02T17:30:46;16.10;;;9.10;;
12812;SDS011;6471;50.932;6.934;2023-07-02T17:33:23;15.37;;;8.90;;
12812;SDS011;6471;50.932;6.934;2023-07-02T17:38:33;19.00;;;9.13;;
12812;SDS011;6471;50.932;6.934;2023-07-02T17:41:20;16.83;;;8.33;;
12812;SDS011;6471;50.932;6.934;2023-07-02T17:44:21;15.93;;;9.00;;
12812;SDS011;6471;50.932;6.934;2023-07-02T19:12:20;11.27;;;6.50;;
12812;SDS011;6471;50.932;6.934;2023-07-02T19:14:53;11.33;;;6.63;;
12812;SDS011;6471;50.932;6.934;2023-07-02T19:17:28;11.27;;;6.90;;
12812;SDS011;6471;50.932;6.934;2023-07-02T19:20:05;12.47;;;6.97;;
12812;SDS011;6471;50.932;6.934;2023-07-02T19:22:33;11.27;;;5.93;;
12812;SDS011;6471;50.932;6.934;2023-07-02T19:25:33;11.90;;;6.70;;
12812;SDS011;6471;50.932;6.934;2023-07-02T19:28:02;9.97;;;6.20;;
12812;SDS011;6471;50.932;6.934;2023-07-02T19:30:46;10.33;;;6.10;;
12812;SDS011;6471;50.932;6.934;2023-07-02T19:33:12;10.10;;;5.90;;
12812;SDS011;6471;50.932;6.934;2023-07-02T19:35:39;10.20;;;5.90;;
12812;SDS011;6471;50.932;6.934;2023-07-02T19:38:05;8.77;;;5.63;;
12812;SDS011;6471;50.932;6.934;2023-07-02T19:40:32;9.70;;;5.50;;
12812;SDS011;6471;50.932;6.934;2023-07-02T19:58:59;10.90;;;5.73;;
12812;SDS011;6471;50.932;6.934;2023-07-02T20:01:28;9.63;;;5.70;;
12812;SDS011;6471;50.932;6.934;2023-07-02T20:14:42;11.47;;;6.17;;
12812;SDS011;6471;50.932;6.934;2023-07-02T20:17:38;11.60;;;6.57;;
12812;SDS011;6471;50.932;6.934;2023-07-02T20:26:48;11.43;;;6.40;;
12812;SDS011;6471;50.932;6.934;2023-07-02T20:33:27;12.17;;;6.60;;
12812;SDS011;6471;50.932;6.934;2023-07-02T20:36:04;13.47;;;6.63;;
12812;SDS011;6471;50.932;6.934;2023-07-02T20:38:32;12.73;;;6.13;;
12812;SDS011;6471;50.932;6.934;2023-07-02T20:40:58;13.67;;;6.10;;
12812;SDS011;6471;50.932;6.934;2023-07-02T20:43:29;13.03;;;6.10;;
12812;SDS011;6471;50.932;6.934;2023-07-02T20:46:05;10.10;;;5.43;;
12812;SDS011;6471;50.932;6.934;2023-07-02T20:48:38;9.00;;;5.43;;
12812;SDS011;6471;50.932;6.934;2023-07-02T20:51:08;11.60;;;6.30;;
12812;SDS011;6471;50.932;6.934;2023-07-02T20:53:34;13.43;;;6.33;;
12812;SDS011;6471;50.932;6.934;2023-07-02T20:56:03;11.17;;;6.17;;
12812;SDS011;6471;50.932;6.934;2023-07-02T20:58:41;14.70;;;6.53;;
12812;SDS011;6471;50.932;6.934;2023-07-02T21:01:14;10.47;;;5.60;;
12812;SDS011;6471;50.932;6.934;2023-07-02T21:03:40;14.93;;;7.00;;
12812;SDS011;6471;50.932;6.934;2023-07-02T21:06:09;13.43;;;6.80;;
12812;SDS011;6471;50.932;6.934;2023-07-02T21:08:36;14.77;;;6.30;;
12812;SDS011;6471;50.932;6.934;2023-07-02T21:11:03;15.03;;;7.07;;
12812;SDS011;6471;50.932;6.934;2023-07-02T21:13:33;12.47;;;6.47;;
12812;SDS011;6471;50.932;6.934;2023-07-02T21:16:02;11.73;;;6.07;;
12812;SDS011;6471;50.932;6.934;2023-07-02T21:18:49;13.37;;;6.07;;
12812;SDS011;6471;50.932;6.934;2023-07-02T21:21:15;11.83;;;5.50;;
12812;SDS011;6471;50.932;6.934;2023-07-02T21:23:44;13.47;;;5.90;;
12812;SDS011;6471;50.932;6.934;2023-07-02T21:26:11;11.87;;;5.53;;
12812;SDS011;6471;50.932;6.934;2023-07-02T21:28:39;13.47;;;5.23;;
12812;SDS011;6471;50.932;6.934;2023-07-02T21:31:12;12.03;;;5.00;;
12812;SDS011;6471;50.932;6.934;2023-07-02T21:33:41;12.90;;;4.93;;
12812;SDS011;6471;50.932;6.934;2023-07-02T21:36:08;11.47;;;5.20;;
12812;SDS011;6471;50.932;6.934;2023-07-02T21:38:36;12.00;;;5.13;;
12812;SDS011;6471;50.932;6.934;2023-07-02T21:41:07;12.50;;;4.90;;
12812;SDS011;6471;50.932;6.934;2023-07-02T21:43:35;13.10;;;4.37;;
12812;SDS011;6471;50.932;6.934;2023-07-02T21:46:03;9.23;;;4.20;;
12812;SDS011;6471;50.932;6.934;2023-07-02T21:48:30;11.23;;;4.00;;
12812;SDS011;6471;50.932;6.934;2023-07-02T21:50:56;10.70;;;3.30;;
12812;SDS011;6471;50.932;6.934;2023-07-02T21:53:25;11.63;;;3.67;;
12812;SDS011;6471;50.932;6.934;2023-07-02T21:55:52;8.53;;;3.87;;
12812;SDS011;6471;50.932;6.934;2023-07-02T21:58:36;9.30;;;3.80;;
12812;SDS011;6471;50.932;6.934;2023-07-02T22:01:03;7.67;;;3.03;;
12812;SDS011;6471;50.932;6.934;2023-07-02T22:03:30;11.90;;;3.53;;
12812;SDS011;6471;50.932;6.934;2023-07-02T22:05:59;8.13;;;3.00;;
12812;SDS011;6471;50.932;6.934;2023-07-02T22:08:25;8.13;;;3.07;;
12812;SDS011;6471;50.932;6.934;2023-07-02T22:10:54;12.53;;;3.57;;
12812;SDS011;6471;50.932;6.934;2023-07-02T22:13:20;9.50;;;3.20;;
12812;SDS011;6471;50.932;6.934;2023-07-02T22:15:47;7.17;;;3.30;;
12812;SDS011;6471;50.932;6.934;2023-07-02T22:18:13;9.43;;;2.87;;
12812;SDS011;6471;50.932;6.934;2023-07-02T22:20:39;11.30;;;3.63;;
12812;SDS011;6471;50.932;6.934;2023-07-02T22:23:07;7.00;;;3.17;;
12812;SDS011;6471;50.932;6.934;2023-07-02T22:25:33;12.03;;;3.10;;
12812;SDS011;6471;50.932;6.934;2023-07-02T22:28:07;6.03;;;3.00;;
12812;SDS011;6471;50.932;6.934;2023-07-02T22:30:34;6.50;;;2.67;;
12812;SDS011;6471;50.932;6.934;2023-07-02T22:33:00;9.13;;;3.43;;
12812;SDS011;6471;50.932;6.934;2023-07-02T22:35:32;8.80;;;2.93;;
12812;SDS011;6471;50.932;6.934;2023-07-02T22:38:01;7.27;;;2.60;;
12812;SDS011;6471;50.932;6.934;2023-07-02T22:40:27;7.03;;;2.97;;
12812;SDS011;6471;50.932;6.934;2023-07-02T22:42:57;10.83;;;2.70;;
12812;SDS011;6471;50.932;6.934;2023-07-02T22:45:23;6.00;;;2.80;;
12812;SDS011;6471;50.932;6.934;2023-07-02T22:47:49;6.33;;;2.70;;
12812;SDS011;6471;50.932;6.934;2023-07-02T22:50:23;6.80;;;2.67;;
12812;SDS011;6471;50.932;6.934;2023-07-02T22:52:49;9.70;;;2.90;;
12812;SDS011;6471;50.932;6.934;2023-07-02T22:55:15;6.67;;;2.63;;
12812;SDS011;6471;50.932;6.934;2023-07-02T22:57:46;6.03;;;2.60;;
12812;SDS011;6471;50.932;6.934;2023-07-02T23:00:14;5.43;;;2.67;;
12812;SDS011;6471;50.932;6.934;2023-07-02T23:02:46;6.33;;;2.67;;
12812;SDS011;6471;50.932;6.934;2023-07-02T23:05:17;5.47;;;2.50;;
12812;SDS011;6471;50.932;6.934;2023-07-02T23:07:44;5.03;;;2.47;;
12812;SDS011;6471;50.932;6.934;2023-07-02T23:10:12;6.70;;;2.87;;
12812;SDS011;6471;50.932;6.934;2023-07-02T23:12:45;6.20;;;2.20;;
12812;SDS011;6471;50.932;6.934;2023-07-02T23:15:12;5.97;;;2.80;;
12812;SDS011;6471;50.932;6.934;2023-07-02T23:17:45;5.60;;;2.57;;
12812;SDS011;6471;50.932;6.934;2023-07-02T23:20:12;4.57;;;2.40;;
12812;SDS011;6471;50.932;6.934;2023-07-02T23:22:39;5.13;;;2.40;;
12812;SDS011;6471;50.932;6.934;2023-07-02T23:25:10;5.47;;;2.50;;
12812;SDS011;6471;50.932;6.934;2023-07-02T23:27:46;5.50;;;2.47;;
12812;SDS011;6471;50.932;6.934;2023-07-02T23:30:16;4.77;;;2.37;;
12812;SDS011;6471;50.932;6.934;2023-07-02T23:32:43;6.33;;;2.27;;
12812;SDS011;6471;50.932;6.934;2023-07-02T23:35:10;4.90;;;2.57;;
12812;SDS011;6471;50.932;6.934;2023-07-02T23:37:37;5.67;;;2.50;;
12812;SDS011;6471;50.932;6.934;2023-07-02T23:40:07;5.63;;;2.30;;
12812;SDS011;6471;50.932;6.934;2023-07-02T23:42:40;3.37;;;1.97;;
12812;SDS011;6471;50.932;6.934;2023-07-02T23:45:07;6.37;;;2.77;;
12812;SDS011;6471;50.932;6.934;2023-07-02T23:47:34;4.13;;;2.13;;
12812;SDS011;6471;50.932;6.934;2023-07-02T23:50:00;4.87;;;2.20;;
12812;SDS011;6471;50.932;6.934;2023-07-02T23:52:26;4.93;;;2.50;;
12812;SDS011;6471;50.932;6.934;2023-07-02T23:54:52;4.97;;;2.17;;
12812;SDS011;6471;50.932;6.934;2023-07-02T23:57:19;4.40;;;2.60;;
12812;SDS011;6471;50.932;6.934;2023-07-02T23:59:45;4.83;;;2.47;;
